Saturday, January 20, 2018, 10:01 AM EST
Back to Local

KCBE, Cumberland, Greater Cumberland Regional Airport

Location: Wiley Ford, MD, United States Lat: 39.615
Local Time: 10:01 AM EST (15:01 GMT) Lon: -78.761
Time Zone: US/Eastern Elev: 774 ft

Show me the last for .
Show Coded

Time T Td Feel RH Dir Speed Gust Alt SLP Vis Weather Sky Remarks
2018-01-20 09:37 52 32 - 46 230° 13 18 30.06 - 10 CLR None
2018-01-20 09:17 50 32 44 49 250° 13 18 30.06 - 10 CLR None
2018-01-20 08:56 46 32 41 56 230° 13 - 30.06 - 10 CLR None
2018-01-20 08:36 46 32 42 56 240° 9 - 30.06 - 10 CLR None
2018-01-20 08:17 46 32 42 56 250° 6 9 30.05 - 10 CLR None
2018-01-20 07:57 46 32 39 56 270° 13 21 30.05 - 10 CLR None
2018-01-20 07:37 45 32 36 61 260° 14 22 30.04 - 10 CLR None
2018-01-20 07:17 45 32 37 61 250° 12 16 30.03 - 10 CLR None
2018-01-20 06:57 45 30 36 56 240° 17 23 30.02 - 10 CLR None
2018-01-20 06:37 45 30 35 56 250° 14 25 30.03 - 10 CLR None
2018-01-20 06:16 45 30 39 56 250° 12 - 30.03 - 10 CLR None
2018-01-20 05:57 45 30 36 56 250° 15 21 30.02 - 10 CLR None
2018-01-20 05:37 43 28 34 56 250° 16 22 30.02 - 10 CLR None
2018-01-20 05:16 43 28 38 56 250° 8 - 30.02 - 10 CLR None
2018-01-20 04:56 43 28 35 56 260° 7 16 30.02 - 10 CLR None
2018-01-20 04:37 43 27 34 52 250° 8 22 30.02 - 10 CLR None
2018-01-20 04:17 43 23 35 45 270° 12 16 30.02 - 10 CLR None
2018-01-20 03:57 43 19 37 38 240° 7 10 30.02 - 10 CLR None
2018-01-20 03:36 43 19 40 38 240° 5 - 30.03 - 10 CLR None
2018-01-20 03:17 43 19 35 38 210° 10 18 30.02 - 10 CLR None
2018-01-20 02:57 43 21 35 41 210° 9 16 30.03 - 10 CLR None
2018-01-20 02:37 43 23 37 45 180° 9 - 30.02 - 10 CLR None
2018-01-20 02:17 43 23 38 45 210° 8 - 30.02 - 10 CLR None
2018-01-20 01:57 43 23 39 45 170° 6 - 30.01 - 10 CLR None
2018-01-20 01:37 41 23 37 48 140° 6 - 30.01 - 10 CLR None
2018-01-20 01:17 41 21 - 44 - Calm - 30.02 - 10 CLR None
2018-01-20 00:57 41 21 36 44 150° 8 - 30.02 - 10 CLR None
2018-01-20 00:37 41 21 36 44 140° 7 - 30.03 - 10 CLR None
2018-01-20 00:17 41 19 38 41 150° 5 - 30.04 - 10 CLR None
2018-01-19 23:57 39 19 37 44 180° 3 - 30.05 - 10 CLR None
2018-01-19 23:37 41 19 37 41 160° 6 - 30.06 - 10 CLR None
2018-01-19 23:17 41 19 38 41 190° 5 - 30.06 - 10 CLR None
2018-01-19 22:57 41 19 36 41 210° 7 - 30.06 - 10 CLR None
2018-01-19 22:37 41 18 36 38 170° 7 - 30.06 - 10 CLR None
2018-01-19 22:17 41 19 35 41 180° 9 - 30.06 - 10 CLR None
2018-01-19 21:57 41 19 32 41 190° 10 18 30.07 - 10 CLR None
2018-01-19 21:37 41 19 32 41 220° 13 20 30.07 - 10 CLR None
2018-01-19 21:17 41 19 33 41 200° 8 16 30.07 - 10 CLR None
2018-01-19 20:57 41 21 33 44 220° 13 16 30.08 - 10 CLR None
2018-01-19 20:37 41 21 37 44 220° 6 - 30.08 - 10 CLR None
2018-01-19 20:17 39 21 33 48 210° 9 - 30.08 - 10 CLR None
2018-01-19 19:57 41 21 36 44 200° 8 - 30.08 - 10 CLR None
2018-01-19 19:37 39 21 33 48 210° 9 - 30.08 - 10 CLR None
2018-01-19 19:17 41 21 37 44 200° 6 - 30.08 - 10 CLR None
2018-01-19 18:57 41 19 36 41 210° 8 - 30.08 - 10 CLR None
2018-01-19 18:37 41 21 36 44 220° 7 - 30.08 - 10 CLR None
2018-01-19 18:17 41 21 36 44 200° 8 - 30.07 - 10 CLR None
2018-01-19 17:57 41 21 36 44 210° 8 - 30.07 - 10 CLR None
2018-01-19 17:37 41 21 36 44 210° 7 - 30.07 - 10 CLR None
2018-01-19 17:17 41 21 36 44 240° 8 - 30.07 - 10 CLR None
2018-01-19 16:57 45 21 42 39 230° 5 - 30.07 - 10 CLR None
2018-01-19 16:37 45 21 40 39 220° 8 - 30.07 - 10 CLR None
2018-01-19 16:17 45 21 39 39 240° 10 - 30.06 - 10 CLR None
2018-01-19 15:57 46 21 41 36 240° 12 - 30.06 - 10 CLR None
2018-01-19 15:37 46 21 41 36 240° 10 - 30.05 - 10 CLR None
2018-01-19 15:17 48 19 42 31 250° 6 17 30.05 - 10 CLR None
2018-01-19 14:57 50 19 48 29 290° 5 - 30.06 - 10 CLR None
2018-01-19 14:37 50 19 47 29 240° 8 - 30.06 - 7 CLR None
2018-01-19 14:17 50 19 48 29 250° 5 - 30.06 - 10 CLR None
2018-01-19 13:57 50 18 47 27 190° 7 - 30.06 - 10 CLR None
2018-01-19 13:37 52 18 - 25 170° 9 - 30.07 - 10 CLR None
2018-01-19 13:17 50 18 47 27 180° 7 - 30.08 - 10 CLR None
2018-01-19 12:57 50 18 44 27 200° 3 16 30.09 - 10 CLR None
2018-01-19 12:37 50 16 48 25 230° 6 - 30.10 - 10 CLR None
2018-01-19 12:17 48 16 46 26 260° 6 - 30.11 - 10 CLR None
2018-01-19 11:57 46 16 44 28 240° 6 - 30.12 - 10 CLR None
2018-01-19 11:37 46 14 44 26 250° 6 - 30.14 - 10 CLR None
2018-01-19 11:17 45 14 41 28 190° 6 - 30.15 - 10 CLR None
2018-01-19 10:57 43 14 38 30 190° 8 - 30.16 - 10 CLR None
2018-01-19 10:37 39 12 34 32 160° 8 - 30.17 - 10 CLR None
2018-01-19 10:17 36 12 29 37 160° 9 - 30.17 - 10 CLR None

Support USWX by starting your Amazon purchase here.